sensor_id;sensor_type;location;lat;lon;timestamp;P1;durP1;ratioP1;P2;durP2;ratioP2
39948;SDS011;29070;48.102;-1.652;2024-03-08T00:03:33;10.75;;;4.15;;
39948;SDS011;29070;48.102;-1.652;2024-03-08T00:08:34;9.75;;;4.22;;
39948;SDS011;29070;48.102;-1.652;2024-03-08T00:13:35;9.52;;;4.35;;
39948;SDS011;29070;48.102;-1.652;2024-03-08T00:18:35;8.60;;;3.47;;
39948;SDS011;29070;48.102;-1.652;2024-03-08T00:23:36;11.50;;;4.15;;
39948;SDS011;29070;48.102;-1.652;2024-03-08T00:28:36;11.13;;;4.13;;
39948;SDS011;29070;48.102;-1.652;2024-03-08T00:33:37;8.40;;;3.83;;
39948;SDS011;29070;48.102;-1.652;2024-03-08T00:38:37;12.70;;;4.17;;
39948;SDS011;29070;48.102;-1.652;2024-03-08T00:43:38;9.43;;;3.95;;
39948;SDS011;29070;48.102;-1.652;2024-03-08T00:48:38;8.00;;;3.77;;
39948;SDS011;29070;48.102;-1.652;2024-03-08T00:53:38;8.37;;;3.60;;
39948;SDS011;29070;48.102;-1.652;2024-03-08T00:58:38;9.17;;;4.03;;
39948;SDS011;29070;48.102;-1.652;2024-03-08T01:03:40;13.43;;;4.80;;
39948;SDS011;29070;48.102;-1.652;2024-03-08T01:08:41;13.55;;;4.38;;
39948;SDS011;29070;48.102;-1.652;2024-03-08T01:13:42;11.32;;;4.57;;
39948;SDS011;29070;48.102;-1.652;2024-03-08T01:18:43;9.87;;;4.23;;
39948;SDS011;29070;48.102;-1.652;2024-03-08T01:23:43;8.85;;;3.90;;
39948;SDS011;29070;48.102;-1.652;2024-03-08T01:28:44;10.30;;;4.67;;
39948;SDS011;29070;48.102;-1.652;2024-03-08T01:33:44;10.38;;;4.10;;
39948;SDS011;29070;48.102;-1.652;2024-03-08T01:38:45;10.63;;;4.13;;
39948;SDS011;29070;48.102;-1.652;2024-03-08T01:43:45;10.73;;;4.57;;
39948;SDS011;29070;48.102;-1.652;2024-03-08T01:48:46;9.82;;;4.38;;
39948;SDS011;29070;48.102;-1.652;2024-03-08T01:53:47;13.32;;;4.75;;
39948;SDS011;29070;48.102;-1.652;2024-03-08T01:58:48;11.27;;;4.57;;
39948;SDS011;29070;48.102;-1.652;2024-03-08T02:03:49;12.27;;;4.32;;
39948;SDS011;29070;48.102;-1.652;2024-03-08T02:08:49;7.88;;;4.00;;
39948;SDS011;29070;48.102;-1.652;2024-03-08T02:13:50;9.57;;;4.10;;
39948;SDS011;29070;48.102;-1.652;2024-03-08T02:18:50;10.47;;;4.53;;
39948;SDS011;29070;48.102;-1.652;2024-03-08T02:23:50;8.97;;;4.10;;
39948;SDS011;29070;48.102;-1.652;2024-03-08T02:28:52;11.13;;;4.93;;
39948;SDS011;29070;48.102;-1.652;2024-03-08T02:33:52;10.93;;;4.27;;
39948;SDS011;29070;48.102;-1.652;2024-03-08T02:38:52;8.00;;;3.83;;
39948;SDS011;29070;48.102;-1.652;2024-03-08T02:43:55;11.98;;;4.40;;
39948;SDS011;29070;48.102;-1.652;2024-03-08T02:48:55;9.80;;;4.00;;
39948;SDS011;29070;48.102;-1.652;2024-03-08T02:53:56;11.07;;;4.38;;
39948;SDS011;29070;48.102;-1.652;2024-03-08T02:58:57;10.15;;;4.03;;
39948;SDS011;29070;48.102;-1.652;2024-03-08T03:03:57;7.77;;;4.00;;
39948;SDS011;29070;48.102;-1.652;2024-03-08T03:08:58;10.05;;;4.43;;
39948;SDS011;29070;48.102;-1.652;2024-03-08T03:13:58;12.37;;;4.93;;
39948;SDS011;29070;48.102;-1.652;2024-03-08T03:18:58;12.93;;;4.57;;
39948;SDS011;29070;48.102;-1.652;2024-03-08T03:24:01;8.85;;;3.97;;
39948;SDS011;29070;48.102;-1.652;2024-03-08T03:29:02;12.27;;;3.80;;
39948;SDS011;29070;48.102;-1.652;2024-03-08T03:34:03;11.02;;;4.03;;
39948;SDS011;29070;48.102;-1.652;2024-03-08T03:39:04;8.75;;;3.80;;
39948;SDS011;29070;48.102;-1.652;2024-03-08T03:44:16;10.07;;;4.35;;
39948;SDS011;29070;48.102;-1.652;2024-03-08T03:49:16;6.95;;;4.40;;
39948;SDS011;29070;48.102;-1.652;2024-03-08T03:54:17;11.20;;;4.15;;
39948;SDS011;29070;48.102;-1.652;2024-03-08T03:59:17;11.90;;;3.80;;
39948;SDS011;29070;48.102;-1.652;2024-03-08T04:04:18;8.40;;;3.72;;
39948;SDS011;29070;48.102;-1.652;2024-03-08T04:09:18;10.40;;;4.27;;
39948;SDS011;29070;48.102;-1.652;2024-03-08T04:14:23;9.43;;;4.40;;
39948;SDS011;29070;48.102;-1.652;2024-03-08T04:19:23;9.63;;;4.35;;
39948;SDS011;29070;48.102;-1.652;2024-03-08T04:24:26;13.20;;;4.57;;
39948;SDS011;29070;48.102;-1.652;2024-03-08T04:29:26;10.18;;;3.72;;
39948;SDS011;29070;48.102;-1.652;2024-03-08T04:34:27;12.03;;;4.10;;
39948;SDS011;29070;48.102;-1.652;2024-03-08T04:39:28;9.05;;;4.28;;
39948;SDS011;29070;48.102;-1.652;2024-03-08T04:44:29;10.20;;;4.27;;
39948;SDS011;29070;48.102;-1.652;2024-03-08T04:49:30;9.25;;;4.28;;
39948;SDS011;29070;48.102;-1.652;2024-03-08T04:54:31;13.25;;;5.13;;
39948;SDS011;29070;48.102;-1.652;2024-03-08T04:59:32;12.65;;;4.15;;
39948;SDS011;29070;48.102;-1.652;2024-03-08T05:04:33;8.48;;;3.95;;
39948;SDS011;29070;48.102;-1.652;2024-03-08T05:09:33;12.23;;;4.40;;
39948;SDS011;29070;48.102;-1.652;2024-03-08T05:14:33;9.98;;;4.55;;
39948;SDS011;29070;48.102;-1.652;2024-03-08T05:19:35;11.63;;;4.65;;
39948;SDS011;29070;48.102;-1.652;2024-03-08T05:24:36;12.98;;;4.43;;
39948;SDS011;29070;48.102;-1.652;2024-03-08T05:29:36;11.97;;;4.47;;
39948;SDS011;29070;48.102;-1.652;2024-03-08T05:34:37;12.15;;;4.60;;
39948;SDS011;29070;48.102;-1.652;2024-03-08T05:39:38;11.93;;;4.78;;
39948;SDS011;29070;48.102;-1.652;2024-03-08T05:44:38;10.70;;;4.50;;
39948;SDS011;29070;48.102;-1.652;2024-03-08T05:49:40;13.38;;;5.28;;
39948;SDS011;29070;48.102;-1.652;2024-03-08T05:54:40;10.20;;;4.80;;
39948;SDS011;29070;48.102;-1.652;2024-03-08T05:59:41;10.17;;;4.87;;
39948;SDS011;29070;48.102;-1.652;2024-03-08T06:04:41;12.43;;;4.57;;
39948;SDS011;29070;48.102;-1.652;2024-03-08T06:09:42;13.70;;;5.10;;
39948;SDS011;29070;48.102;-1.652;2024-03-08T06:14:46;14.55;;;5.55;;
39948;SDS011;29070;48.102;-1.652;2024-03-08T06:19:46;15.20;;;5.53;;
39948;SDS011;29070;48.102;-1.652;2024-03-08T06:24:46;10.37;;;4.67;;
39948;SDS011;29070;48.102;-1.652;2024-03-08T06:29:47;13.32;;;5.07;;
39948;SDS011;29070;48.102;-1.652;2024-03-08T06:34:49;12.20;;;4.75;;
39948;SDS011;29070;48.102;-1.652;2024-03-08T06:39:50;14.75;;;5.32;;
39948;SDS011;29070;48.102;-1.652;2024-03-08T06:44:55;13.65;;;5.32;;
39948;SDS011;29070;48.102;-1.652;2024-03-08T06:49:59;15.55;;;5.53;;
39948;SDS011;29070;48.102;-1.652;2024-03-08T06:55:00;16.40;;;6.00;;
39948;SDS011;29070;48.102;-1.652;2024-03-08T07:00:01;13.38;;;5.40;;
39948;SDS011;29070;48.102;-1.652;2024-03-08T07:05:04;15.10;;;5.95;;
39948;SDS011;29070;48.102;-1.652;2024-03-08T07:10:04;17.00;;;6.05;;
39948;SDS011;29070;48.102;-1.652;2024-03-08T07:15:05;12.45;;;5.25;;
39948;SDS011;29070;48.102;-1.652;2024-03-08T07:20:06;12.73;;;5.20;;
39948;SDS011;29070;48.102;-1.652;2024-03-08T07:30:22;13.13;;;4.60;;
39948;SDS011;29070;48.102;-1.652;2024-03-08T07:35:44;14.23;;;5.10;;
39948;SDS011;29070;48.102;-1.652;2024-03-08T07:40:45;14.82;;;5.68;;
39948;SDS011;29070;48.102;-1.652;2024-03-08T07:45:45;15.00;;;5.93;;
39948;SDS011;29070;48.102;-1.652;2024-03-08T07:50:46;12.82;;;5.97;;
39948;SDS011;29070;48.102;-1.652;2024-03-08T07:55:46;16.75;;;6.20;;
39948;SDS011;29070;48.102;-1.652;2024-03-08T08:00:47;16.77;;;5.95;;
39948;SDS011;29070;48.102;-1.652;2024-03-08T08:05:47;15.50;;;5.93;;
39948;SDS011;29070;48.102;-1.652;2024-03-08T08:10:49;18.25;;;5.72;;
39948;SDS011;29070;48.102;-1.652;2024-03-08T08:15:49;15.07;;;5.40;;
39948;SDS011;29070;48.102;-1.652;2024-03-08T08:20:50;13.18;;;5.63;;
39948;SDS011;29070;48.102;-1.652;2024-03-08T08:25:50;16.10;;;5.72;;
39948;SDS011;29070;48.102;-1.652;2024-03-08T08:30:51;15.23;;;5.70;;
39948;SDS011;29070;48.102;-1.652;2024-03-08T08:35:52;15.35;;;5.63;;
39948;SDS011;29070;48.102;-1.652;2024-03-08T08:40:53;11.57;;;4.65;;
39948;SDS011;29070;48.102;-1.652;2024-03-08T08:45:54;15.40;;;5.27;;
39948;SDS011;29070;48.102;-1.652;2024-03-08T08:50:55;14.23;;;5.43;;
39948;SDS011;29070;48.102;-1.652;2024-03-08T08:55:55;10.43;;;5.20;;
39948;SDS011;29070;48.102;-1.652;2024-03-08T09:00:56;17.63;;;5.72;;
39948;SDS011;29070;48.102;-1.652;2024-03-08T09:05:56;13.07;;;5.00;;
39948;SDS011;29070;48.102;-1.652;2024-03-08T09:10:57;16.00;;;5.47;;
39948;SDS011;29070;48.102;-1.652;2024-03-08T09:15:59;16.00;;;5.35;;
39948;SDS011;29070;48.102;-1.652;2024-03-08T09:21:00;11.43;;;4.45;;
39948;SDS011;29070;48.102;-1.652;2024-03-08T09:26:00;13.73;;;5.00;;
39948;SDS011;29070;48.102;-1.652;2024-03-08T09:31:01;12.27;;;5.07;;
39948;SDS011;29070;48.102;-1.652;2024-03-08T09:36:02;10.38;;;4.65;;
39948;SDS011;29070;48.102;-1.652;2024-03-08T09:41:03;10.82;;;4.22;;
39948;SDS011;29070;48.102;-1.652;2024-03-08T09:46:04;13.70;;;4.68;;
39948;SDS011;29070;48.102;-1.652;2024-03-08T09:51:08;12.48;;;4.68;;
39948;SDS011;29070;48.102;-1.652;2024-03-08T09:56:08;10.25;;;3.90;;
39948;SDS011;29070;48.102;-1.652;2024-03-08T10:01:09;13.30;;;5.13;;
39948;SDS011;29070;48.102;-1.652;2024-03-08T10:06:09;12.97;;;4.37;;
39948;SDS011;29070;48.102;-1.652;2024-03-08T10:11:10;9.10;;;3.75;;
39948;SDS011;29070;48.102;-1.652;2024-03-08T10:16:12;10.55;;;3.97;;
39948;SDS011;29070;48.102;-1.652;2024-03-08T10:21:12;14.27;;;4.07;;
39948;SDS011;29070;48.102;-1.652;2024-03-08T10:26:13;9.10;;;3.97;;
39948;SDS011;29070;48.102;-1.652;2024-03-08T10:31:15;10.50;;;4.28;;
39948;SDS011;29070;48.102;-1.652;2024-03-08T10:36:16;11.88;;;4.15;;
39948;SDS011;29070;48.102;-1.652;2024-03-08T10:41:16;8.50;;;4.10;;
39948;SDS011;29070;48.102;-1.652;2024-03-08T10:51:41;10.03;;;3.87;;
39948;SDS011;29070;48.102;-1.652;2024-03-08T10:56:42;10.30;;;3.58;;
39948;SDS011;29070;48.102;-1.652;2024-03-08T11:01:43;9.05;;;5.22;;
39948;SDS011;29070;48.102;-1.652;2024-03-08T11:06:44;11.97;;;8.70;;
39948;SDS011;29070;48.102;-1.652;2024-03-08T11:11:45;11.30;;;6.80;;
39948;SDS011;29070;48.102;-1.652;2024-03-08T11:16:46;8.77;;;5.60;;
39948;SDS011;29070;48.102;-1.652;2024-03-08T11:21:47;10.60;;;3.47;;
39948;SDS011;29070;48.102;-1.652;2024-03-08T11:26:47;9.03;;;5.90;;
39948;SDS011;29070;48.102;-1.652;2024-03-08T11:31:47;8.43;;;3.50;;
39948;SDS011;29070;48.102;-1.652;2024-03-08T11:36:48;8.30;;;3.55;;
39948;SDS011;29070;48.102;-1.652;2024-03-08T11:41:48;10.43;;;5.83;;
39948;SDS011;29070;48.102;-1.652;2024-03-08T11:46:49;11.20;;;2.87;;
39948;SDS011;29070;48.102;-1.652;2024-03-08T11:51:52;8.47;;;3.30;;
39948;SDS011;29070;48.102;-1.652;2024-03-08T11:56:56;10.18;;;8.07;;
39948;SDS011;29070;48.102;-1.652;2024-03-08T12:02:04;8.60;;;3.50;;
39948;SDS011;29070;48.102;-1.652;2024-03-08T12:07:05;14.03;;;6.87;;
39948;SDS011;29070;48.102;-1.652;2024-03-08T12:12:11;10.32;;;8.98;;
39948;SDS011;29070;48.102;-1.652;2024-03-08T12:17:12;8.30;;;6.88;;
39948;SDS011;29070;48.102;-1.652;2024-03-08T12:22:14;15.05;;;12.85;;
39948;SDS011;29070;48.102;-1.652;2024-03-08T12:27:19;11.02;;;9.48;;
39948;SDS011;29070;48.102;-1.652;2024-03-08T12:32:20;10.67;;;3.77;;
39948;SDS011;29070;48.102;-1.652;2024-03-08T12:37:23;13.00;;;5.13;;
39948;SDS011;29070;48.102;-1.652;2024-03-08T12:42:23;8.82;;;3.40;;
39948;SDS011;29070;48.102;-1.652;2024-03-08T12:47:24;19.13;;;3.30;;
39948;SDS011;29070;48.102;-1.652;2024-03-08T12:52:24;6.28;;;3.08;;
39948;SDS011;29070;48.102;-1.652;2024-03-08T12:57:25;5.50;;;2.53;;
39948;SDS011;29070;48.102;-1.652;2024-03-08T13:02:28;7.88;;;3.22;;
39948;SDS011;29070;48.102;-1.652;2024-03-08T13:07:28;8.50;;;3.50;;
39948;SDS011;29070;48.102;-1.652;2024-03-08T13:12:29;8.23;;;3.38;;
39948;SDS011;29070;48.102;-1.652;2024-03-08T13:17:29;8.35;;;3.05;;
39948;SDS011;29070;48.102;-1.652;2024-03-08T13:22:29;6.13;;;2.40;;
39948;SDS011;29070;48.102;-1.652;2024-03-08T13:27:30;4.32;;;2.17;;
39948;SDS011;29070;48.102;-1.652;2024-03-08T13:32:30;6.13;;;2.45;;
39948;SDS011;29070;48.102;-1.652;2024-03-08T13:37:31;5.18;;;2.40;;
39948;SDS011;29070;48.102;-1.652;2024-03-08T13:42:33;9.45;;;2.70;;
39948;SDS011;29070;48.102;-1.652;2024-03-08T13:47:33;5.43;;;2.50;;
39948;SDS011;29070;48.102;-1.652;2024-03-08T13:52:34;9.53;;;2.97;;
39948;SDS011;29070;48.102;-1.652;2024-03-08T13:57:34;7.10;;;2.65;;
39948;SDS011;29070;48.102;-1.652;2024-03-08T14:02:35;8.68;;;3.08;;
39948;SDS011;29070;48.102;-1.652;2024-03-08T14:07:35;9.05;;;3.20;;
39948;SDS011;29070;48.102;-1.652;2024-03-08T14:12:36;8.20;;;3.35;;
39948;SDS011;29070;48.102;-1.652;2024-03-08T14:17:38;10.85;;;3.47;;
39948;SDS011;29070;48.102;-1.652;2024-03-08T14:22:38;9.37;;;3.03;;
39948;SDS011;29070;48.102;-1.652;2024-03-08T14:27:39;9.05;;;2.85;;
39948;SDS011;29070;48.102;-1.652;2024-03-08T14:32:40;8.57;;;3.00;;
39948;SDS011;29070;48.102;-1.652;2024-03-08T14:37:41;7.68;;;2.60;;
39948;SDS011;29070;48.102;-1.652;2024-03-08T14:42:43;10.35;;;3.10;;
39948;SDS011;29070;48.102;-1.652;2024-03-08T14:47:48;7.55;;;3.00;;
39948;SDS011;29070;48.102;-1.652;2024-03-08T14:52:52;4.78;;;2.45;;
39948;SDS011;29070;48.102;-1.652;2024-03-08T14:57:52;6.82;;;2.78;;
39948;SDS011;29070;48.102;-1.652;2024-03-08T15:02:53;8.63;;;3.00;;
39948;SDS011;29070;48.102;-1.652;2024-03-08T15:07:54;5.18;;;2.15;;
39948;SDS011;29070;48.102;-1.652;2024-03-08T15:12:55;5.40;;;2.17;;
39948;SDS011;29070;48.102;-1.652;2024-03-08T15:17:55;6.15;;;2.95;;
39948;SDS011;29070;48.102;-1.652;2024-03-08T15:22:58;5.82;;;2.60;;
39948;SDS011;29070;48.102;-1.652;2024-03-08T15:27:58;8.90;;;3.20;;
39948;SDS011;29070;48.102;-1.652;2024-03-08T15:32:58;9.63;;;2.75;;
39948;SDS011;29070;48.102;-1.652;2024-03-08T15:38:03;7.95;;;3.25;;
39948;SDS011;29070;48.102;-1.652;2024-03-08T15:43:04;9.20;;;3.22;;
39948;SDS011;29070;48.102;-1.652;2024-03-08T15:48:05;7.57;;;2.67;;
39948;SDS011;29070;48.102;-1.652;2024-03-08T15:53:06;5.85;;;2.38;;
39948;SDS011;29070;48.102;-1.652;2024-03-08T15:58:06;5.50;;;2.83;;
39948;SDS011;29070;48.102;-1.652;2024-03-08T16:03:07;7.43;;;2.45;;
39948;SDS011;29070;48.102;-1.652;2024-03-08T16:08:11;7.50;;;2.35;;
39948;SDS011;29070;48.102;-1.652;2024-03-08T16:13:15;7.55;;;3.33;;
39948;SDS011;29070;48.102;-1.652;2024-03-08T16:18:17;5.90;;;2.83;;
39948;SDS011;29070;48.102;-1.652;2024-03-08T16:23:21;9.55;;;3.17;;
39948;SDS011;29070;48.102;-1.652;2024-03-08T16:28:23;4.93;;;2.60;;
39948;SDS011;29070;48.102;-1.652;2024-03-08T16:33:27;8.57;;;3.17;;
39948;SDS011;29070;48.102;-1.652;2024-03-08T16:38:28;8.07;;;2.80;;
39948;SDS011;29070;48.102;-1.652;2024-03-08T16:43:28;8.57;;;3.60;;
39948;SDS011;29070;48.102;-1.652;2024-03-08T16:48:29;7.50;;;2.53;;
39948;SDS011;29070;48.102;-1.652;2024-03-08T16:53:30;9.20;;;3.10;;
39948;SDS011;29070;48.102;-1.652;2024-03-08T16:58:33;9.13;;;3.30;;
39948;SDS011;29070;48.102;-1.652;2024-03-08T17:03:34;5.68;;;3.00;;
39948;SDS011;29070;48.102;-1.652;2024-03-08T17:08:36;6.13;;;2.85;;
39948;SDS011;29070;48.102;-1.652;2024-03-08T17:13:37;6.78;;;3.10;;
39948;SDS011;29070;48.102;-1.652;2024-03-08T17:18:38;7.38;;;3.17;;
39948;SDS011;29070;48.102;-1.652;2024-03-08T17:23:39;6.05;;;3.22;;
39948;SDS011;29070;48.102;-1.652;2024-03-08T17:28:40;5.72;;;2.83;;
39948;SDS011;29070;48.102;-1.652;2024-03-08T17:33:43;11.68;;;3.50;;
39948;SDS011;29070;48.102;-1.652;2024-03-08T17:38:43;9.60;;;3.40;;
39948;SDS011;29070;48.102;-1.652;2024-03-08T17:43:46;9.45;;;3.45;;
39948;SDS011;29070;48.102;-1.652;2024-03-08T17:48:46;7.30;;;4.77;;
39948;SDS011;29070;48.102;-1.652;2024-03-08T17:53:46;14.37;;;8.80;;
39948;SDS011;29070;48.102;-1.652;2024-03-08T17:58:49;13.80;;;7.93;;
39948;SDS011;29070;48.102;-1.652;2024-03-08T18:03:50;14.57;;;7.45;;
39948;SDS011;29070;48.102;-1.652;2024-03-08T18:08:51;12.43;;;5.65;;
39948;SDS011;29070;48.102;-1.652;2024-03-08T18:13:52;13.07;;;4.63;;
39948;SDS011;29070;48.102;-1.652;2024-03-08T18:18:52;11.73;;;5.07;;
39948;SDS011;29070;48.102;-1.652;2024-03-08T18:23:52;14.00;;;5.40;;
39948;SDS011;29070;48.102;-1.652;2024-03-08T18:28:53;9.77;;;5.13;;
39948;SDS011;29070;48.102;-1.652;2024-03-08T18:33:53;10.98;;;5.35;;
39948;SDS011;29070;48.102;-1.652;2024-03-08T18:38:54;9.83;;;4.67;;
39948;SDS011;29070;48.102;-1.652;2024-03-08T18:43:54;12.37;;;5.27;;
39948;SDS011;29070;48.102;-1.652;2024-03-08T18:48:57;10.13;;;4.90;;
39948;SDS011;29070;48.102;-1.652;2024-03-08T18:53:59;11.50;;;4.80;;
39948;SDS011;29070;48.102;-1.652;2024-03-08T18:58:59;9.87;;;4.33;;
39948;SDS011;29070;48.102;-1.652;2024-03-08T19:04:00;6.97;;;3.60;;
39948;SDS011;29070;48.102;-1.652;2024-03-08T19:09:00;10.80;;;4.53;;
39948;SDS011;29070;48.102;-1.652;2024-03-08T19:14:04;8.82;;;4.47;;
39948;SDS011;29070;48.102;-1.652;2024-03-08T19:19:05;9.60;;;4.03;;
39948;SDS011;29070;48.102;-1.652;2024-03-08T19:24:06;9.05;;;3.33;;
39948;SDS011;29070;48.102;-1.652;2024-03-08T19:29:07;7.88;;;2.90;;
39948;SDS011;29070;48.102;-1.652;2024-03-08T19:34:11;6.75;;;3.15;;
39948;SDS011;29070;48.102;-1.652;2024-03-08T19:39:12;5.05;;;2.15;;
39948;SDS011;29070;48.102;-1.652;2024-03-08T19:44:12;3.63;;;2.00;;
39948;SDS011;29070;48.102;-1.652;2024-03-08T19:49:14;6.20;;;1.83;;
39948;SDS011;29070;48.102;-1.652;2024-03-08T19:54:16;4.40;;;1.92;;
39948;SDS011;29070;48.102;-1.652;2024-03-08T19:59:17;5.45;;;2.45;;
39948;SDS011;29070;48.102;-1.652;2024-03-08T20:04:19;8.88;;;2.40;;
39948;SDS011;29070;48.102;-1.652;2024-03-08T20:09:20;5.10;;;1.88;;
39948;SDS011;29070;48.102;-1.652;2024-03-08T20:14:21;4.10;;;1.53;;
39948;SDS011;29070;48.102;-1.652;2024-03-08T20:19:24;3.65;;;1.20;;
39948;SDS011;29070;48.102;-1.652;2024-03-08T20:24:25;2.17;;;1.30;;
39948;SDS011;29070;48.102;-1.652;2024-03-08T20:29:25;3.47;;;1.50;;
39948;SDS011;29070;48.102;-1.652;2024-03-08T20:34:26;3.92;;;1.65;;
39948;SDS011;29070;48.102;-1.652;2024-03-08T20:39:27;2.83;;;1.47;;
39948;SDS011;29070;48.102;-1.652;2024-03-08T20:44:29;2.67;;;1.60;;
39948;SDS011;29070;48.102;-1.652;2024-03-08T20:49:31;4.28;;;1.52;;
39948;SDS011;29070;48.102;-1.652;2024-03-08T20:54:31;4.20;;;1.73;;
39948;SDS011;29070;48.102;-1.652;2024-03-08T20:59:36;2.53;;;1.60;;
39948;SDS011;29070;48.102;-1.652;2024-03-08T21:04:36;4.10;;;1.10;;
39948;SDS011;29070;48.102;-1.652;2024-03-08T21:09:37;4.03;;;1.30;;
39948;SDS011;29070;48.102;-1.652;2024-03-08T21:14:37;3.00;;;1.40;;
39948;SDS011;29070;48.102;-1.652;2024-03-08T21:19:38;3.97;;;1.55;;
39948;SDS011;29070;48.102;-1.652;2024-03-08T21:24:44;5.15;;;1.48;;
39948;SDS011;29070;48.102;-1.652;2024-03-08T21:29:44;2.22;;;1.23;;
39948;SDS011;29070;48.102;-1.652;2024-03-08T21:34:45;3.25;;;1.20;;
39948;SDS011;29070;48.102;-1.652;2024-03-08T21:39:46;2.97;;;1.37;;
39948;SDS011;29070;48.102;-1.652;2024-03-08T21:44:46;4.33;;;1.20;;
39948;SDS011;29070;48.102;-1.652;2024-03-08T21:49:46;2.80;;;1.13;;
39948;SDS011;29070;48.102;-1.652;2024-03-08T21:54:50;3.15;;;1.38;;
39948;SDS011;29070;48.102;-1.652;2024-03-08T21:59:51;1.58;;;0.93;;
39948;SDS011;29070;48.102;-1.652;2024-03-08T22:04:53;2.67;;;1.02;;
39948;SDS011;29070;48.102;-1.652;2024-03-08T22:09:54;3.53;;;1.47;;
39948;SDS011;29070;48.102;-1.652;2024-03-08T22:14:54;3.10;;;1.45;;
39948;SDS011;29070;48.102;-1.652;2024-03-08T22:19:54;3.50;;;1.20;;
39948;SDS011;29070;48.102;-1.652;2024-03-08T22:24:55;2.50;;;1.30;;
39948;SDS011;29070;48.102;-1.652;2024-03-08T22:29:56;2.80;;;0.75;;
39948;SDS011;29070;48.102;-1.652;2024-03-08T22:34:57;5.07;;;1.00;;
39948;SDS011;29070;48.102;-1.652;2024-03-08T22:39:57;3.67;;;1.60;;
39948;SDS011;29070;48.102;-1.652;2024-03-08T22:44:58;2.80;;;1.23;;
39948;SDS011;29070;48.102;-1.652;2024-03-08T22:49:59;2.75;;;0.90;;
39948;SDS011;29070;48.102;-1.652;2024-03-08T22:55:00;3.00;;;0.70;;
39948;SDS011;29070;48.102;-1.652;2024-03-08T23:00:00;0.80;;;0.40;;
39948;SDS011;29070;48.102;-1.652;2024-03-08T23:05:00;1.20;;;0.63;;
39948;SDS011;29070;48.102;-1.652;2024-03-08T23:10:01;1.10;;;0.47;;
39948;SDS011;29070;48.102;-1.652;2024-03-08T23:15:02;2.65;;;0.82;;
39948;SDS011;29070;48.102;-1.652;2024-03-08T23:20:03;1.45;;;0.68;;
39948;SDS011;29070;48.102;-1.652;2024-03-08T23:25:06;0.88;;;0.43;;
39948;SDS011;29070;48.102;-1.652;2024-03-08T23:30:09;2.17;;;0.95;;
39948;SDS011;29070;48.102;-1.652;2024-03-08T23:35:10;1.40;;;0.60;;
39948;SDS011;29070;48.102;-1.652;2024-03-08T23:40:15;5.90;;;1.00;;
39948;SDS011;29070;48.102;-1.652;2024-03-08T23:45:18;2.15;;;0.77;;
39948;SDS011;29070;48.102;-1.652;2024-03-08T23:50:23;1.92;;;0.50;;
39948;SDS011;29070;48.102;-1.652;2024-03-08T23:55:30;1.55;;;0.63;;
